createdAt,value
2023-07-06T00:00:35.780Z,43.44
2023-07-06T00:01:35.805Z,43.45
2023-07-06T00:02:35.891Z,43.44
2023-07-06T00:03:35.953Z,43.44
2023-07-06T00:04:35.948Z,43.49
2023-07-06T00:05:35.904Z,43.48
2023-07-06T00:06:35.922Z,43.48
2023-07-06T00:07:35.927Z,43.45
2023-07-06T00:08:35.975Z,43.46
2023-07-06T00:09:36.057Z,43.45
2023-07-06T00:10:36.218Z,43.48
2023-07-06T00:11:36.279Z,43.46
2023-07-06T00:12:36.261Z,43.46
2023-07-06T00:13:36.445Z,43.45
2023-07-06T00:14:36.481Z,43.43
2023-07-06T00:15:36.475Z,43.45
2023-07-06T00:16:36.565Z,43.43
2023-07-06T00:17:36.536Z,43.44
2023-07-06T00:18:36.507Z,43.41
2023-07-06T00:19:36.499Z,43.43
2023-07-06T00:20:36.794Z,43.46
2023-07-06T00:21:36.586Z,43.44
2023-07-06T00:22:36.580Z,43.45
2023-07-06T00:23:36.534Z,43.41
2023-07-06T00:24:36.570Z,43.44
2023-07-06T00:25:36.540Z,43.44
2023-07-06T00:26:36.663Z,43.42
2023-07-06T00:27:36.807Z,43.44
2023-07-06T00:28:36.849Z,43.43
2023-07-06T00:29:37.011Z,43.42
2023-07-06T00:30:37.058Z,43.43
2023-07-06T00:31:37.148Z,43.46
2023-07-06T00:32:37.081Z,43.45
2023-07-06T00:33:37.078Z,43.45
2023-07-06T00:34:37.079Z,43.46
2023-07-06T00:35:37.156Z,43.44
2023-07-06T00:36:37.261Z,43.45
2023-07-06T00:37:37.218Z,43.47
2023-07-06T00:38:37.245Z,43.47
2023-07-06T00:39:37.267Z,43.44
2023-07-06T00:40:37.268Z,43.45
2023-07-06T00:41:37.278Z,43.45
2023-07-06T00:42:39.103Z,43.46
2023-07-06T00:43:38.330Z,43.46
2023-07-06T00:44:37.379Z,43.44
2023-07-06T00:45:37.416Z,43.48
2023-07-06T00:46:37.390Z,43.46
2023-07-06T00:47:37.397Z,43.45
2023-07-06T00:48:37.331Z,43.46
2023-07-06T00:49:37.303Z,43.48
2023-07-06T00:50:37.295Z,43.47
2023-07-06T00:51:37.281Z,43.47
2023-07-06T00:52:37.314Z,43.49
2023-07-06T00:53:37.265Z,43.49
2023-07-06T00:54:37.271Z,43.50
2023-07-06T00:55:37.281Z,43.53
2023-07-06T00:56:37.246Z,43.53
2023-07-06T00:57:37.222Z,43.53
2023-07-06T00:58:37.256Z,43.55
2023-07-06T00:59:37.280Z,43.54
2023-07-06T01:00:37.270Z,43.53
2023-07-06T01:01:37.389Z,43.54
2023-07-06T01:02:38.195Z,43.57
2023-07-06T01:03:37.405Z,43.58
2023-07-06T01:04:37.326Z,43.59
2023-07-06T01:05:37.340Z,43.58
2023-07-06T01:06:37.422Z,43.60
2023-07-06T01:07:37.418Z,43.60
2023-07-06T01:08:37.522Z,43.60
2023-07-06T01:09:37.541Z,43.63
2023-07-06T01:10:37.551Z,43.60
2023-07-06T01:11:37.598Z,43.61
2023-07-06T01:12:37.542Z,43.62
2023-07-06T01:13:37.628Z,43.63
2023-07-06T01:14:37.678Z,43.60
2023-07-06T01:15:37.781Z,43.62
2023-07-06T01:16:37.778Z,43.60
2023-07-06T01:17:37.729Z,43.63
2023-07-06T01:18:37.731Z,43.62
2023-07-06T01:19:38.087Z,43.63
2023-07-06T01:20:37.946Z,43.64
2023-07-06T01:21:38.090Z,43.62
2023-07-06T01:22:38.151Z,43.62
2023-07-06T01:23:38.230Z,43.64
2023-07-06T01:24:38.284Z,43.64
2023-07-06T01:25:38.301Z,43.66
2023-07-06T01:26:38.304Z,43.65
2023-07-06T01:27:38.344Z,43.69
2023-07-06T01:28:38.350Z,43.68
2023-07-06T01:29:38.517Z,43.69
2023-07-06T01:30:38.652Z,43.65
2023-07-06T01:31:38.540Z,43.68
2023-07-06T01:32:38.785Z,43.64
2023-07-06T01:33:38.557Z,43.65
2023-07-06T01:34:38.519Z,43.64
2023-07-06T01:35:38.505Z,43.64
2023-07-06T01:36:38.574Z,43.62
2023-07-06T01:37:38.610Z,43.64
2023-07-06T01:38:38.653Z,43.62
2023-07-06T01:39:39.044Z,43.61
2023-07-06T01:40:38.675Z,43.62
2023-07-06T01:41:38.681Z,43.62
2023-07-06T01:42:38.713Z,43.61
2023-07-06T01:43:38.728Z,43.62
2023-07-06T01:44:38.724Z,43.63
2023-07-06T01:45:38.848Z,43.60
2023-07-06T01:46:38.862Z,43.60
2023-07-06T01:47:38.962Z,43.60
2023-07-06T01:48:38.862Z,43.62
2023-07-06T01:49:38.903Z,43.61
2023-07-06T01:50:38.932Z,43.61
2023-07-06T01:51:38.967Z,43.62
2023-07-06T01:52:38.996Z,43.62
2023-07-06T01:53:39.172Z,43.62
2023-07-06T01:54:39.626Z,43.64
2023-07-06T01:55:39.127Z,43.60
2023-07-06T01:56:39.073Z,43.63
2023-07-06T01:57:51.630Z,43.61
2023-07-06T01:58:40.054Z,43.65
2023-07-06T01:59:39.077Z,43.67
2023-07-06T02:00:39.138Z,43.66
2023-07-06T02:01:39.012Z,43.66
2023-07-06T02:02:39.127Z,43.63
2023-07-06T02:03:39.032Z,43.66
2023-07-06T02:04:39.044Z,43.67
2023-07-06T02:05:39.084Z,43.68
2023-07-06T02:06:39.087Z,43.67
2023-07-06T02:07:39.395Z,43.68
2023-07-06T02:08:39.000Z,43.68
2023-07-06T02:09:38.996Z,43.66
2023-07-06T02:10:39.002Z,43.71
2023-07-06T02:11:38.984Z,43.69
2023-07-06T02:12:39.005Z,43.68
2023-07-06T02:13:38.955Z,43.67
2023-07-06T02:14:38.933Z,43.66
2023-07-06T02:15:38.954Z,43.70
2023-07-06T02:16:39.107Z,43.71
2023-07-06T02:17:39.059Z,43.71
2023-07-06T02:18:38.968Z,43.70
2023-07-06T02:19:38.976Z,43.71
2023-07-06T02:20:39.657Z,43.71
2023-07-06T02:21:38.940Z,43.71
2023-07-06T02:22:38.901Z,43.70
2023-07-06T02:23:38.976Z,43.73
2023-07-06T02:24:39.021Z,43.76
2023-07-06T02:25:39.018Z,43.73
2023-07-06T02:26:39.118Z,43.71
2023-07-06T02:27:39.074Z,43.74
2023-07-06T02:28:39.146Z,43.76
2023-07-06T02:29:39.095Z,43.74
2023-07-06T02:30:39.185Z,43.73
2023-07-06T02:31:39.161Z,43.75
2023-07-06T02:32:39.225Z,43.76
2023-07-06T02:33:39.177Z,43.76
2023-07-06T02:34:39.222Z,43.73
2023-07-06T02:35:39.192Z,43.75
2023-07-06T02:36:39.292Z,43.74
2023-07-06T02:37:39.691Z,43.76
2023-07-06T02:38:39.294Z,43.75
2023-07-06T02:39:39.422Z,43.78
2023-07-06T02:40:39.403Z,43.75
2023-07-06T02:41:39.381Z,43.75
2023-07-06T02:42:39.447Z,43.78
2023-07-06T02:43:39.460Z,43.76
2023-07-06T02:44:39.506Z,43.75
2023-07-06T02:45:39.509Z,43.76
2023-07-06T02:46:39.617Z,43.77
2023-07-06T02:47:40.095Z,43.75
2023-07-06T02:48:39.590Z,43.79
2023-07-06T02:49:39.701Z,43.77
2023-07-06T02:50:39.649Z,43.76
2023-07-06T02:51:39.677Z,43.76
2023-07-06T02:52:39.724Z,43.77
2023-07-06T02:53:39.825Z,43.81
2023-07-06T02:54:39.769Z,43.76
2023-07-06T02:55:39.727Z,43.77
2023-07-06T02:56:39.789Z,43.79
2023-07-06T02:57:39.798Z,43.77
2023-07-06T02:58:39.874Z,43.79
2023-07-06T02:59:39.853Z,43.77
2023-07-06T03:00:39.929Z,43.78
2023-07-06T03:01:39.978Z,43.76
2023-07-06T03:02:39.982Z,43.77
2023-07-06T03:03:39.935Z,43.80
2023-07-06T03:04:39.979Z,43.78
2023-07-06T03:05:40.210Z,43.78
2023-07-06T03:06:40.072Z,43.78
2023-07-06T03:07:40.147Z,43.81
2023-07-06T03:08:40.123Z,43.79
2023-07-06T03:09:40.118Z,43.77
2023-07-06T03:10:40.254Z,43.79
2023-07-06T03:11:40.197Z,43.80
2023-07-06T03:12:40.331Z,43.77
2023-07-06T03:13:40.259Z,43.79
2023-07-06T03:14:40.318Z,43.79
2023-07-06T03:15:40.327Z,43.81
2023-07-06T03:16:40.415Z,43.81
2023-07-06T03:17:40.468Z,43.81
2023-07-06T03:18:40.383Z,43.79
2023-07-06T03:19:40.489Z,43.79
2023-07-06T03:20:40.505Z,43.79
2023-07-06T03:21:40.723Z,43.80
2023-07-06T03:22:40.520Z,43.81
2023-07-06T03:23:40.597Z,43.80
2023-07-06T03:24:40.634Z,43.79
2023-07-06T03:25:40.761Z,43.79
2023-07-06T03:26:40.740Z,43.78
2023-07-06T03:27:40.712Z,43.77
2023-07-06T03:28:41.166Z,43.80
2023-07-06T03:29:40.776Z,43.78
2023-07-06T03:30:40.810Z,43.80
2023-07-06T03:31:40.891Z,43.77
2023-07-06T03:32:40.913Z,43.79
2023-07-06T03:33:40.900Z,43.78
2023-07-06T03:34:40.923Z,43.81
2023-07-06T03:35:40.972Z,43.77
2023-07-06T03:36:40.989Z,43.80
2023-07-06T03:37:40.988Z,43.79
2023-07-06T03:38:41.040Z,43.79
2023-07-06T03:39:41.040Z,43.75
2023-07-06T03:40:41.098Z,43.78
2023-07-06T03:41:41.161Z,43.78
2023-07-06T03:42:41.185Z,43.81
2023-07-06T03:43:42.205Z,43.80
2023-07-06T03:44:41.249Z,43.81
2023-07-06T03:45:41.273Z,43.80
2023-07-06T03:46:41.306Z,43.80
2023-07-06T03:47:41.371Z,43.79
2023-07-06T03:48:41.368Z,43.78
2023-07-06T03:49:41.429Z,43.82
2023-07-06T03:50:41.434Z,43.85
2023-07-06T03:51:41.498Z,43.83
2023-07-06T03:52:41.532Z,43.79
2023-07-06T03:53:41.514Z,43.80
2023-07-06T03:54:41.617Z,43.83
2023-07-06T03:55:41.578Z,43.82
2023-07-06T03:56:41.624Z,43.81
2023-07-06T03:57:54.654Z,43.81
2023-07-06T03:58:42.684Z,43.81
2023-07-06T03:59:41.649Z,43.79
2023-07-06T04:00:41.653Z,43.82
2023-07-06T04:01:41.655Z,43.84
2023-07-06T04:02:41.646Z,43.84
2023-07-06T04:03:41.646Z,43.82
2023-07-06T04:04:41.694Z,43.84
2023-07-06T04:05:41.644Z,43.81
2023-07-06T04:06:41.713Z,43.82
2023-07-06T04:07:41.607Z,43.81
2023-07-06T04:08:43.268Z,43.76
2023-07-06T04:09:41.557Z,43.76
2023-07-06T04:10:41.561Z,43.68
2023-07-06T04:11:41.584Z,43.64
2023-07-06T04:12:41.496Z,43.62
2023-07-06T04:13:41.622Z,43.69
2023-07-06T04:14:41.598Z,43.64
2023-07-06T04:15:41.729Z,43.68
2023-07-06T04:16:41.781Z,43.68
2023-07-06T04:17:41.980Z,43.66
2023-07-06T04:18:41.708Z,43.68
2023-07-06T04:19:41.778Z,43.62
2023-07-06T04:20:41.841Z,43.63
2023-07-06T04:21:41.843Z,43.61
2023-07-06T04:22:41.900Z,43.57
2023-07-06T04:23:43.945Z,43.55
2023-07-06T04:24:41.935Z,43.58
2023-07-06T04:25:41.937Z,43.58
2023-07-06T04:26:41.878Z,43.58
2023-07-06T04:27:42.058Z,43.52
2023-07-06T04:28:41.966Z,43.54
2023-07-06T04:29:41.893Z,43.52
2023-07-06T04:30:41.862Z,43.51
2023-07-06T04:31:41.950Z,43.46
2023-07-06T04:32:41.894Z,43.48
2023-07-06T04:33:41.887Z,43.49
2023-07-06T04:34:41.839Z,43.48
2023-07-06T04:35:41.839Z,43.48
2023-07-06T04:36:41.859Z,43.51
2023-07-06T04:37:41.899Z,43.50
2023-07-06T04:38:41.845Z,43.52
2023-07-06T04:39:41.852Z,43.53
2023-07-06T04:40:41.825Z,43.54
2023-07-06T04:41:41.772Z,43.54
2023-07-06T04:42:41.791Z,43.54
2023-07-06T04:43:41.790Z,43.52
2023-07-06T04:44:41.760Z,43.53
2023-07-06T04:45:41.786Z,43.54
2023-07-06T04:46:41.795Z,43.56
2023-07-06T04:47:41.872Z,43.55
2023-07-06T04:48:41.713Z,43.54
2023-07-06T04:49:41.795Z,43.52
2023-07-06T04:50:41.826Z,43.55
2023-07-06T04:51:41.741Z,43.56
2023-07-06T04:52:41.712Z,43.56
2023-07-06T04:53:41.751Z,43.56
2023-07-06T04:54:41.710Z,43.56
2023-07-06T04:55:41.689Z,43.55
2023-07-06T04:56:41.671Z,43.55
2023-07-06T04:57:41.678Z,43.55
2023-07-06T04:58:41.788Z,43.58
2023-07-06T04:59:41.692Z,43.55
2023-07-06T05:00:41.758Z,43.54
2023-07-06T05:01:41.659Z,43.56
2023-07-06T05:02:41.707Z,43.54
2023-07-06T05:03:41.687Z,43.55
2023-07-06T05:04:41.634Z,43.57
2023-07-06T05:05:42.079Z,43.55
2023-07-06T05:06:41.640Z,43.59
2023-07-06T05:07:41.605Z,43.55
2023-07-06T05:08:41.642Z,43.56
2023-07-06T05:09:41.633Z,43.56
2023-07-06T05:10:41.656Z,43.53
2023-07-06T05:11:41.635Z,43.54
2023-07-06T05:12:41.585Z,43.56
2023-07-06T05:13:41.897Z,43.54
2023-07-06T05:14:41.748Z,43.54
2023-07-06T05:15:41.544Z,43.54
2023-07-06T05:16:41.669Z,43.54
2023-07-06T05:17:41.604Z,43.56
2023-07-06T05:18:41.576Z,43.56
2023-07-06T05:19:41.551Z,43.54
2023-07-06T05:20:41.593Z,43.51
2023-07-06T05:21:41.554Z,43.53
2023-07-06T05:22:41.645Z,43.54
2023-07-06T05:23:41.656Z,43.53
2023-07-06T05:24:41.677Z,43.51
2023-07-06T05:25:41.680Z,43.50
2023-07-06T05:26:41.743Z,43.51
2023-07-06T05:27:41.792Z,43.51
2023-07-06T05:28:41.788Z,43.53
2023-07-06T05:29:41.872Z,43.53
2023-07-06T05:30:41.867Z,43.49
2023-07-06T05:31:41.869Z,43.51
2023-07-06T05:32:42.015Z,43.50
2023-07-06T05:33:41.985Z,43.49
2023-07-06T05:34:42.005Z,43.49
2023-07-06T05:35:42.018Z,43.48
2023-07-06T05:36:42.063Z,43.49
2023-07-06T05:37:42.034Z,43.47
2023-07-06T05:38:42.174Z,43.48
2023-07-06T05:39:42.181Z,43.50
2023-07-06T05:40:42.156Z,43.47
2023-07-06T05:41:42.265Z,43.49
2023-07-06T05:42:42.211Z,43.48
2023-07-06T05:43:42.205Z,43.48
2023-07-06T05:44:42.276Z,43.48
2023-07-06T05:45:42.275Z,43.48
2023-07-06T05:46:42.329Z,43.46
2023-07-06T05:47:42.363Z,43.48
2023-07-06T05:48:42.349Z,43.47
2023-07-06T05:49:42.403Z,43.47
2023-07-06T05:50:42.455Z,43.47
2023-07-06T05:51:42.454Z,43.49
2023-07-06T05:52:42.469Z,43.43
2023-07-06T05:53:42.482Z,43.46
2023-07-06T05:54:42.541Z,43.46
2023-07-06T05:55:42.532Z,43.45
2023-07-06T05:56:42.563Z,43.48
2023-07-06T05:57:42.598Z,43.45
2023-07-06T05:58:42.597Z,43.45
2023-07-06T05:59:42.691Z,43.43
2023-07-06T06:00:42.689Z,43.46
2023-07-06T06:01:42.715Z,43.46
2023-07-06T06:02:42.708Z,43.47
2023-07-06T06:03:42.732Z,43.45
2023-07-06T06:04:42.688Z,43.44
2023-07-06T06:05:42.751Z,43.46
2023-07-06T06:06:42.760Z,43.47
2023-07-06T06:07:42.782Z,43.45
2023-07-06T06:08:42.849Z,43.45
2023-07-06T06:09:43.267Z,43.45
2023-07-06T06:10:42.802Z,43.44
2023-07-06T06:11:42.866Z,43.43
2023-07-06T06:12:42.856Z,43.45
2023-07-06T06:13:43.007Z,43.46
2023-07-06T06:14:42.948Z,43.46
2023-07-06T06:15:42.940Z,43.44
2023-07-06T06:16:43.024Z,43.46
2023-07-06T06:17:43.003Z,43.47
2023-07-06T06:18:43.993Z,43.42
2023-07-06T06:19:43.061Z,43.45
2023-07-06T06:20:43.065Z,43.44
2023-07-06T06:21:43.052Z,43.43
2023-07-06T06:22:43.124Z,43.43
2023-07-06T06:23:43.102Z,43.43
2023-07-06T06:24:43.113Z,43.44
2023-07-06T06:25:43.151Z,43.44
2023-07-06T06:26:43.209Z,43.44
2023-07-06T06:27:43.294Z,43.43
2023-07-06T06:28:43.181Z,43.43
2023-07-06T06:29:43.271Z,43.43
2023-07-06T06:30:43.249Z,43.41
2023-07-06T06:31:43.384Z,43.43
2023-07-06T06:32:43.510Z,43.44
2023-07-06T06:33:43.401Z,43.65
2023-07-06T06:34:43.472Z,43.62
2023-07-06T06:35:43.470Z,43.62
2023-07-06T06:36:43.484Z,43.66
2023-07-06T06:37:43.480Z,43.85
2023-07-06T06:38:43.636Z,43.88
2023-07-06T06:39:43.690Z,43.98
2023-07-06T06:40:43.700Z,44.26
2023-07-06T06:41:43.694Z,44.29
2023-07-06T06:42:43.695Z,44.29
2023-07-06T06:43:43.644Z,44.36
2023-07-06T06:44:43.721Z,44.38
2023-07-06T06:45:43.769Z,44.49
2023-07-06T06:46:43.831Z,44.77
2023-07-06T06:47:43.909Z,44.55
2023-07-06T06:48:43.932Z,44.51
2023-07-06T06:49:43.955Z,44.44
2023-07-06T06:50:43.955Z,44.27
2023-07-06T06:51:44.005Z,44.22
2023-07-06T06:52:44.053Z,44.16
2023-07-06T06:53:44.047Z,44.05
2023-07-06T06:54:44.120Z,44.02
2023-07-06T06:55:44.204Z,44.02
2023-07-06T06:56:44.144Z,44.00
2023-07-06T06:57:44.201Z,43.98
2023-07-06T06:58:45.089Z,43.94
2023-07-06T06:59:44.215Z,43.95
2023-07-06T07:00:44.210Z,43.85
2023-07-06T07:01:44.332Z,43.75
2023-07-06T07:02:44.571Z,43.73
2023-07-06T07:03:44.402Z,43.67
2023-07-06T07:04:44.349Z,43.66
2023-07-06T07:05:44.420Z,43.56
2023-07-06T07:06:44.486Z,43.59
2023-07-06T07:07:44.489Z,43.53
2023-07-06T07:08:45.296Z,43.52
2023-07-06T07:09:44.585Z,43.51
2023-07-06T07:10:44.630Z,43.41
2023-07-06T07:11:44.717Z,43.42
2023-07-06T07:12:44.808Z,43.38
2023-07-06T07:13:44.934Z,43.32
2023-07-06T07:14:44.921Z,43.33
2023-07-06T07:15:44.984Z,43.34
2023-07-06T07:16:45.366Z,43.34
2023-07-06T07:17:45.118Z,43.27
2023-07-06T07:18:45.169Z,43.21
2023-07-06T07:19:47.191Z,43.20
2023-07-06T07:20:45.215Z,43.23
2023-07-06T07:21:45.300Z,43.29
2023-07-06T07:22:45.189Z,43.28
2023-07-06T07:23:45.193Z,43.26
2023-07-06T07:24:45.324Z,43.26
2023-07-06T07:25:45.205Z,43.30
2023-07-06T07:26:45.154Z,43.28
2023-07-06T07:27:45.150Z,43.26
2023-07-06T07:28:45.371Z,43.21
2023-07-06T07:29:45.148Z,43.02
2023-07-06T07:30:45.119Z,43.02
2023-07-06T07:31:45.174Z,42.95
2023-07-06T07:32:45.238Z,42.91
2023-07-06T07:33:45.171Z,42.96
2023-07-06T07:34:45.180Z,43.16
2023-07-06T07:35:45.109Z,43.16
2023-07-06T07:36:45.129Z,43.23
2023-07-06T07:37:45.108Z,43.05
2023-07-06T07:38:45.122Z,43.12
2023-07-06T07:39:45.105Z,43.24
2023-07-06T07:40:45.317Z,43.23
2023-07-06T07:41:45.114Z,43.26
2023-07-06T07:42:45.067Z,43.27
2023-07-06T07:43:45.429Z,43.32
2023-07-06T07:44:45.074Z,43.29
2023-07-06T07:45:45.083Z,43.18
2023-07-06T07:46:45.066Z,43.17
2023-07-06T07:47:45.377Z,43.21
2023-07-06T07:48:45.342Z,43.19
2023-07-06T07:49:45.070Z,43.27
2023-07-06T07:50:45.013Z,43.46
2023-07-06T07:51:45.034Z,43.56
2023-07-06T07:52:45.088Z,43.68
2023-07-06T07:53:44.999Z,43.64
2023-07-06T07:54:44.992Z,43.69
2023-07-06T07:55:44.999Z,43.68
2023-07-06T07:56:45.012Z,43.70
2023-07-06T07:57:45.025Z,43.73
2023-07-06T07:58:44.987Z,43.74
2023-07-06T07:59:44.965Z,43.66
2023-07-06T08:00:45.037Z,43.59
2023-07-06T08:01:44.960Z,43.61
2023-07-06T08:02:45.049Z,43.60
2023-07-06T08:03:45.342Z,43.62
2023-07-06T08:05:45.027Z,43.72
2023-07-06T08:06:45.084Z,43.76
2023-07-06T08:07:45.181Z,43.74
2023-07-06T08:08:45.240Z,43.76
2023-07-06T08:09:45.549Z,43.73
2023-07-06T08:10:45.306Z,43.66
2023-07-06T08:11:45.374Z,43.63
2023-07-06T08:12:45.530Z,43.61
2023-07-06T08:13:45.432Z,43.61
2023-07-06T08:14:45.446Z,43.67
2023-07-06T08:15:45.487Z,43.80
2023-07-06T08:16:45.410Z,43.91
2023-07-06T08:17:45.398Z,44.09
2023-07-06T08:18:45.471Z,44.13
2023-07-06T08:20:17.715Z,44.22
2023-07-06T08:21:01.134Z,44.29
2023-07-06T08:22:46.466Z,44.40
2023-07-06T08:23:45.505Z,44.38
2023-07-06T08:24:45.511Z,44.38
2023-07-06T08:25:45.528Z,44.35
2023-07-06T08:26:45.445Z,44.37
2023-07-06T08:27:45.470Z,44.47
2023-07-06T08:28:45.435Z,44.48
2023-07-06T08:29:45.446Z,44.49
2023-07-06T08:30:45.443Z,44.47
2023-07-06T08:31:45.477Z,44.32
2023-07-06T08:32:45.512Z,44.30
2023-07-06T08:33:46.388Z,44.22
2023-07-06T08:34:45.415Z,44.01
2023-07-06T08:35:45.389Z,43.78
2023-07-06T08:36:45.390Z,43.41
2023-07-06T08:37:45.393Z,43.27
2023-07-06T08:38:45.435Z,43.07
2023-07-06T08:39:45.331Z,43.05
2023-07-06T08:40:45.434Z,42.91
2023-07-06T08:41:45.475Z,42.91
2023-07-06T08:42:45.329Z,42.81
2023-07-06T08:43:45.401Z,42.62
2023-07-06T08:44:45.340Z,42.51
2023-07-06T08:45:45.367Z,42.38
2023-07-06T08:46:45.463Z,42.25
2023-07-06T08:47:45.383Z,42.23
2023-07-06T08:48:45.363Z,42.23
2023-07-06T08:49:45.606Z,42.17
2023-07-06T08:50:45.613Z,42.01
2023-07-06T08:51:45.283Z,42.00
2023-07-06T08:52:45.723Z,41.95
2023-07-06T08:53:45.285Z,41.87
2023-07-06T08:54:45.301Z,41.98
2023-07-06T08:55:45.409Z,41.98
2023-07-06T08:56:45.241Z,41.95
2023-07-06T08:57:45.259Z,42.03
2023-07-06T08:58:45.215Z,42.15
2023-07-06T08:59:45.224Z,42.28
2023-07-06T09:00:45.241Z,42.26
2023-07-06T09:01:45.333Z,42.23
2023-07-06T09:02:45.370Z,42.20
2023-07-06T09:03:45.395Z,42.16
2023-07-06T09:04:45.221Z,42.13
2023-07-06T09:05:45.165Z,41.79
2023-07-06T09:06:45.176Z,41.73
2023-07-06T09:07:45.190Z,41.63
2023-07-06T09:08:46.989Z,41.58
2023-07-06T09:09:45.367Z,41.60
2023-07-06T09:10:45.446Z,41.55
2023-07-06T09:11:45.444Z,41.41
2023-07-06T09:12:45.541Z,41.36
2023-07-06T09:13:45.565Z,41.35
2023-07-06T09:14:45.654Z,41.41
2023-07-06T09:15:45.616Z,41.37
2023-07-06T09:16:45.666Z,41.37
2023-07-06T09:17:45.807Z,41.33
2023-07-06T09:18:46.017Z,41.41
2023-07-06T09:19:45.797Z,41.46
2023-07-06T09:20:46.148Z,41.35
2023-07-06T09:21:45.783Z,41.34
2023-07-06T09:22:45.920Z,41.36
2023-07-06T09:23:45.946Z,41.35
2023-07-06T09:24:45.961Z,41.44
2023-07-06T09:25:46.024Z,41.50
2023-07-06T09:26:46.095Z,41.56
2023-07-06T09:27:46.231Z,41.59
2023-07-06T09:28:46.148Z,41.55
2023-07-06T09:29:46.244Z,41.53
2023-07-06T09:30:46.286Z,41.45
2023-07-06T09:31:46.324Z,41.49
2023-07-06T09:32:46.398Z,41.61
2023-07-06T09:33:46.884Z,41.66
2023-07-06T09:34:46.731Z,41.57
2023-07-06T09:35:46.419Z,41.58
2023-07-06T09:36:46.725Z,41.64
2023-07-06T09:37:46.511Z,41.77
2023-07-06T09:38:46.460Z,41.87
2023-07-06T09:39:47.349Z,41.86
2023-07-06T09:40:46.532Z,41.97
2023-07-06T09:41:46.541Z,42.06
2023-07-06T09:42:46.659Z,42.09
2023-07-06T09:43:46.677Z,42.18
2023-07-06T09:44:46.661Z,42.21
2023-07-06T09:45:46.693Z,42.18
2023-07-06T09:46:47.042Z,42.10
2023-07-06T09:47:46.816Z,42.05
2023-07-06T09:48:46.707Z,41.93
2023-07-06T09:49:46.801Z,41.91
2023-07-06T09:50:46.810Z,41.84
2023-07-06T09:51:47.226Z,41.80
2023-07-06T09:52:46.846Z,41.86
2023-07-06T09:53:46.841Z,41.56
2023-07-06T09:54:47.247Z,41.24
2023-07-06T09:55:46.951Z,40.98
2023-07-06T09:56:46.910Z,40.73
2023-07-06T09:57:47.048Z,40.43
2023-07-06T09:58:47.076Z,40.30
2023-07-06T09:59:47.094Z,40.42
2023-07-06T10:00:47.098Z,40.08
2023-07-06T10:01:47.194Z,39.70
2023-07-06T10:02:47.320Z,39.60
2023-07-06T10:03:47.226Z,39.50
2023-07-06T10:04:47.247Z,39.10
2023-07-06T10:05:47.743Z,38.76
2023-07-06T10:06:47.445Z,38.74
2023-07-06T10:07:47.625Z,38.72
2023-07-06T10:08:47.450Z,38.69
2023-07-06T10:09:47.489Z,38.69
2023-07-06T10:10:47.575Z,38.70
2023-07-06T10:11:47.998Z,38.73
2023-07-06T10:12:47.538Z,38.75
2023-07-06T10:13:47.653Z,38.88
2023-07-06T10:14:47.652Z,38.86
2023-07-06T10:15:47.578Z,38.96
2023-07-06T10:16:47.756Z,39.22
2023-07-06T10:17:47.779Z,39.51
2023-07-06T10:18:47.700Z,39.77
2023-07-06T10:19:47.759Z,39.97
2023-07-06T10:20:47.742Z,39.98
2023-07-06T10:21:47.734Z,39.97
2023-07-06T10:22:47.751Z,39.86
2023-07-06T10:23:48.158Z,39.97
2023-07-06T10:24:47.856Z,39.88
2023-07-06T10:25:47.772Z,39.87
2023-07-06T10:26:47.814Z,39.96
2023-07-06T10:27:48.011Z,39.99
2023-07-06T10:28:47.808Z,40.00
2023-07-06T10:29:48.349Z,40.05
2023-07-06T10:30:47.787Z,40.03
2023-07-06T10:31:47.884Z,40.02
2023-07-06T10:32:47.964Z,39.92
2023-07-06T10:33:48.033Z,39.75
2023-07-06T10:34:48.235Z,38.98
2023-07-06T10:35:47.993Z,38.33
2023-07-06T10:36:48.038Z,38.26
2023-07-06T10:37:48.045Z,38.03
2023-07-06T10:38:48.160Z,37.93
2023-07-06T10:39:48.168Z,37.84
2023-07-06T10:40:48.074Z,38.00
2023-07-06T10:41:48.417Z,38.12
2023-07-06T10:42:48.181Z,37.94
2023-07-06T10:43:48.105Z,37.74
2023-07-06T10:44:48.243Z,37.64
2023-07-06T10:45:48.254Z,37.06
2023-07-06T10:46:48.141Z,36.76
2023-07-06T10:47:48.221Z,36.72
2023-07-06T10:48:48.213Z,36.43
2023-07-06T10:49:48.220Z,36.32
2023-07-06T10:50:48.227Z,36.27
2023-07-06T10:51:48.258Z,36.08
2023-07-06T10:52:48.356Z,35.81
2023-07-06T10:53:48.264Z,35.76
2023-07-06T10:54:48.308Z,35.75
2023-07-06T10:55:48.381Z,35.61
2023-07-06T10:56:48.373Z,35.56
2023-07-06T10:57:48.410Z,35.59
2023-07-06T10:58:48.281Z,35.28
2023-07-06T10:59:48.329Z,34.72
2023-07-06T11:00:48.304Z,33.98
2023-07-06T11:01:48.472Z,33.83
2023-07-06T11:02:48.468Z,33.93
2023-07-06T11:03:48.448Z,33.89
2023-07-06T11:04:48.432Z,34.04
2023-07-06T11:05:48.841Z,34.20
2023-07-06T11:06:48.443Z,34.34
2023-07-06T11:07:48.461Z,34.45
2023-07-06T11:08:48.493Z,34.62
2023-07-06T11:09:48.589Z,34.62
2023-07-06T11:10:48.624Z,34.45
2023-07-06T11:11:48.697Z,34.55
2023-07-06T11:12:49.784Z,34.52
2023-07-06T11:13:48.746Z,34.53
2023-07-06T11:14:48.724Z,34.40
2023-07-06T11:15:49.059Z,34.30
2023-07-06T11:16:48.888Z,34.22
2023-07-06T11:17:48.996Z,34.22
2023-07-06T11:18:48.934Z,33.96
2023-07-06T11:19:48.994Z,33.27
2023-07-06T11:20:49.002Z,33.52
2023-07-06T11:21:49.060Z,33.78
2023-07-06T11:22:49.132Z,33.90
2023-07-06T11:23:49.175Z,34.27
2023-07-06T11:24:49.284Z,34.10
2023-07-06T11:25:49.289Z,34.03
2023-07-06T11:26:49.388Z,33.96
2023-07-06T11:27:49.410Z,33.89
2023-07-06T11:28:49.456Z,33.89
2023-07-06T11:29:49.568Z,33.93
2023-07-06T11:30:49.556Z,34.26
2023-07-06T11:31:49.753Z,34.87
2023-07-06T11:32:49.690Z,35.06
2023-07-06T11:33:49.656Z,35.09
2023-07-06T11:34:49.733Z,34.93
2023-07-06T11:35:49.704Z,34.92
2023-07-06T11:36:49.781Z,34.69
2023-07-06T11:37:58.359Z,34.19
2023-07-06T11:38:50.811Z,34.32
2023-07-06T11:39:49.814Z,34.41
2023-07-06T11:40:49.742Z,34.39
2023-07-06T11:41:49.837Z,34.30
2023-07-06T11:42:49.757Z,34.21
2023-07-06T11:43:49.747Z,34.25
2023-07-06T11:44:50.091Z,34.13
2023-07-06T11:45:49.748Z,33.94
2023-07-06T11:46:49.754Z,33.80
2023-07-06T11:47:49.980Z,33.65
2023-07-06T11:48:49.684Z,33.48
2023-07-06T11:49:49.783Z,33.29
2023-07-06T11:50:49.803Z,33.12
2023-07-06T11:51:49.872Z,32.76
2023-07-06T11:52:49.929Z,32.64
2023-07-06T11:53:49.998Z,32.59
2023-07-06T11:54:50.016Z,32.67
2023-07-06T11:55:50.124Z,32.75
2023-07-06T11:56:50.147Z,32.85
2023-07-06T11:57:50.178Z,32.81
2023-07-06T11:58:50.166Z,32.69
2023-07-06T11:59:50.177Z,32.72
2023-07-06T12:00:50.530Z,32.51
2023-07-06T12:01:50.668Z,32.47
2023-07-06T12:02:50.438Z,32.18
2023-07-06T12:03:50.467Z,32.01
2023-07-06T12:04:50.446Z,32.12
2023-07-06T12:05:52.089Z,32.29
2023-07-06T12:06:50.494Z,32.39
2023-07-06T12:07:50.564Z,32.46
2023-07-06T12:08:50.498Z,32.44
2023-07-06T12:09:50.507Z,32.65
2023-07-06T12:10:50.568Z,32.71
2023-07-06T12:11:50.482Z,32.70
2023-07-06T12:12:50.540Z,32.71
2023-07-06T12:13:50.602Z,32.61
2023-07-06T12:14:50.551Z,32.79
2023-07-06T12:15:50.600Z,32.94
2023-07-06T12:16:50.569Z,33.01
2023-07-06T12:17:50.646Z,33.09
2023-07-06T12:18:50.994Z,33.12
2023-07-06T12:19:50.698Z,33.11
2023-07-06T12:20:50.707Z,33.07
2023-07-06T12:21:50.702Z,33.11
2023-07-06T12:22:50.825Z,33.14
2023-07-06T12:23:50.819Z,33.21
2023-07-06T12:24:50.936Z,33.32
2023-07-06T12:25:50.990Z,33.36
2023-07-06T12:26:50.949Z,33.37
2023-07-06T12:27:50.879Z,33.38
2023-07-06T12:28:51.876Z,33.44
2023-07-06T12:29:50.873Z,33.49
2023-07-06T12:30:50.928Z,33.42
2023-07-06T12:31:50.867Z,33.46
2023-07-06T12:32:50.826Z,33.60
2023-07-06T12:33:50.887Z,33.62
2023-07-06T12:34:50.853Z,33.59
2023-07-06T12:35:50.912Z,33.57
2023-07-06T12:36:50.912Z,33.56
2023-07-06T12:37:50.809Z,33.59
2023-07-06T12:38:52.103Z,33.54
2023-07-06T12:39:50.931Z,33.51
2023-07-06T12:40:51.011Z,33.62
2023-07-06T12:41:51.220Z,33.75
2023-07-06T12:42:51.063Z,33.93
2023-07-06T12:43:51.155Z,34.06
2023-07-06T12:44:51.459Z,34.11
2023-07-06T12:45:51.183Z,34.19
2023-07-06T12:46:51.284Z,34.37
2023-07-06T12:47:51.217Z,34.53
2023-07-06T12:48:51.406Z,34.73
2023-07-06T12:49:56.895Z,34.79
2023-07-06T12:50:52.634Z,34.74
2023-07-06T12:51:51.344Z,34.56
2023-07-06T12:52:51.321Z,34.44
2023-07-06T12:53:51.598Z,34.10
2023-07-06T12:54:51.334Z,33.97